createdAt,value
2023-01-30T00:00:15.719Z,100727.97
2023-01-30T00:02:42.742Z,100727.53
2023-01-30T00:05:09.677Z,100732.31
2023-01-30T00:07:36.445Z,100722.75
2023-01-30T00:10:03.491Z,100739.66
2023-01-30T00:12:30.187Z,100739.94
2023-01-30T00:14:56.893Z,100730.81
2023-01-30T00:17:25.016Z,100734.38
2023-01-30T00:19:51.765Z,100738.53
2023-01-30T00:22:18.479Z,100736.06
2023-01-30T00:24:45.428Z,100729.09
2023-01-30T00:27:12.323Z,100728.03
2023-01-30T00:29:39.014Z,100734.09
2023-01-30T00:32:06.062Z,100727.41
2023-01-30T00:34:34.191Z,100723.78
2023-01-30T00:37:08.199Z,100742.38
2023-01-30T00:39:35.235Z,100730.44
2023-01-30T00:42:01.971Z,100727.69
2023-01-30T00:44:28.675Z,100728.16
2023-01-30T00:46:55.467Z,100729.41
2023-01-30T00:49:22.361Z,100723.16
2023-01-30T00:51:50.585Z,100726.38
2023-01-30T00:54:17.501Z,100731.53
2023-01-30T00:56:44.501Z,100724.97
2023-01-30T00:59:11.236Z,100732.97
2023-01-30T01:01:38.264Z,100731.94
2023-01-30T01:04:05.358Z,100731.09
2023-01-30T01:06:32.093Z,100736.06
2023-01-30T01:09:00.443Z,100726.66
2023-01-30T01:11:27.173Z,100727.88
2023-01-30T01:13:55.004Z,100740.41
2023-01-30T01:16:22.090Z,100728.94
2023-01-30T01:18:49.257Z,100741.53
2023-01-30T01:21:16.548Z,100733.63
2023-01-30T01:23:44.602Z,100737.59
2023-01-30T01:26:12.760Z,100732.59
2023-01-30T01:28:39.494Z,100744.91
2023-01-30T01:31:10.590Z,100740.56
2023-01-30T01:33:37.735Z,100736.63
2023-01-30T01:36:05.251Z,100749.53
2023-01-30T01:38:32.175Z,100758.63
2023-01-30T01:40:59.139Z,100753.44
2023-01-30T01:43:28.106Z,100751.75
2023-01-30T01:46:00.784Z,100760.44
2023-01-30T01:48:31.075Z,100756.97
2023-01-30T01:51:01.365Z,100757.53
2023-01-30T01:53:32.609Z,100759.88
2023-01-30T01:56:02.603Z,100742.63
2023-01-30T01:58:35.797Z,100749.25
2023-01-30T02:01:02.547Z,100763.22
2023-01-30T02:03:32.741Z,100762.72
2023-01-30T02:06:02.637Z,100755.94
2023-01-30T02:08:33.037Z,100767.81
2023-01-30T02:11:05.222Z,100764.09
2023-01-30T02:13:34.325Z,100761.81
2023-01-30T02:16:03.521Z,100779.06
2023-01-30T02:18:32.980Z,100779.03
2023-01-30T02:21:24.397Z,100766.63
2023-01-30T02:24:20.568Z,100784.03
2023-01-30T02:27:15.691Z,100789.81
2023-01-30T02:30:28.056Z,100790.31
2023-01-30T02:33:08.532Z,100784.97
2023-01-30T02:35:44.657Z,100786.44
2023-01-30T02:38:24.701Z,100773.63
2023-01-30T02:41:02.184Z,100767.34
2023-01-30T02:43:35.575Z,100778.19
2023-01-30T02:46:08.915Z,100772.28
2023-01-30T02:48:42.781Z,100764.41
2023-01-30T02:51:16.877Z,100763.94
2023-01-30T02:53:43.812Z,100761.38
2023-01-30T02:56:10.477Z,100762.84
2023-01-30T02:58:43.125Z,100767.00
2023-01-30T03:01:43.857Z,100760.94
2023-01-30T03:04:30.574Z,100768.13
2023-01-30T03:07:16.425Z,100769.03
2023-01-30T03:09:52.037Z,100772.72
2023-01-30T03:12:34.066Z,100774.13
2023-01-30T03:15:05.648Z,100776.88
2023-01-30T03:17:33.883Z,100773.44
2023-01-30T03:20:02.407Z,100780.53
2023-01-30T03:22:29.308Z,100775.66
2023-01-30T03:24:56.080Z,100778.81
2023-01-30T03:27:22.964Z,100770.50
2023-01-30T03:29:49.695Z,100782.50
2023-01-30T03:32:16.696Z,100772.97
2023-01-30T03:34:43.366Z,100769.34
2023-01-30T03:37:11.529Z,100769.59
2023-01-30T03:39:38.293Z,100775.72
2023-01-30T03:42:05.231Z,100784.16
2023-01-30T03:44:31.953Z,100779.88
2023-01-30T03:46:58.703Z,100782.06
2023-01-30T03:49:25.462Z,100778.03
2023-01-30T03:51:52.245Z,100779.56
2023-01-30T03:54:20.377Z,100785.94
2023-01-30T03:56:47.076Z,100779.81
2023-01-30T03:59:13.787Z,100768.13
2023-01-30T04:01:40.467Z,100764.72
2023-01-30T04:04:07.318Z,100778.06
2023-01-30T04:06:35.808Z,100796.34
2023-01-30T04:09:03.633Z,100798.09
2023-01-30T04:11:31.791Z,100793.50
2023-01-30T04:13:58.495Z,100803.97
2023-01-30T04:16:26.889Z,100804.22
2023-01-30T04:18:53.785Z,100797.47
2023-01-30T04:21:21.155Z,100795.59
2023-01-30T04:23:47.887Z,100805.66
2023-01-30T04:26:15.015Z,100799.56
2023-01-30T04:28:43.443Z,100793.53
2023-01-30T04:31:10.662Z,100803.91
2023-01-30T04:33:37.644Z,100815.53
2023-01-30T04:36:05.289Z,100812.25
2023-01-30T04:38:33.806Z,100811.81
2023-01-30T04:41:01.087Z,100815.53
2023-01-30T04:43:29.239Z,100822.63
2023-01-30T04:45:58.035Z,100832.38
2023-01-30T04:48:25.577Z,100830.81
2023-01-30T04:50:54.846Z,100833.28
2023-01-30T04:53:22.620Z,100843.16
2023-01-30T04:55:49.740Z,100827.06
2023-01-30T04:58:17.263Z,100842.84
2023-01-30T05:00:43.943Z,100842.75
2023-01-30T05:03:12.081Z,100825.09
2023-01-30T05:05:38.832Z,100825.53
2023-01-30T05:08:05.907Z,100824.50
2023-01-30T05:10:32.639Z,100828.31
2023-01-30T05:13:02.639Z,100835.16
2023-01-30T05:15:29.375Z,100850.78
2023-01-30T05:17:56.097Z,100855.13
2023-01-30T05:20:24.571Z,100863.69
2023-01-30T05:22:51.407Z,100858.16
2023-01-30T05:25:18.304Z,100855.47
2023-01-30T05:27:45.279Z,100846.38
2023-01-30T05:30:12.387Z,100857.31
2023-01-30T05:32:39.186Z,100867.47
2023-01-30T05:35:07.511Z,100870.31
2023-01-30T05:37:35.630Z,100881.66
2023-01-30T05:40:02.351Z,100892.22
2023-01-30T05:42:29.075Z,100881.94
2023-01-30T05:44:55.789Z,100894.94
2023-01-30T05:47:22.515Z,100902.72
2023-01-30T05:49:49.379Z,100904.22
2023-01-30T05:52:16.112Z,100901.56
2023-01-30T05:54:44.415Z,100909.63
2023-01-30T05:57:11.134Z,100902.91
2023-01-30T05:59:37.822Z,100906.22
2023-01-30T06:02:04.485Z,100914.38
2023-01-30T06:04:31.183Z,100926.81
2023-01-30T06:06:57.859Z,100924.28
2023-01-30T06:09:24.587Z,100923.13
2023-01-30T06:11:53.351Z,100928.19
2023-01-30T06:14:20.263Z,100938.59
2023-01-30T06:16:47.036Z,100956.28
2023-01-30T06:19:13.821Z,100956.63
2023-01-30T06:21:40.502Z,100957.13
2023-01-30T06:24:07.459Z,100951.34
2023-01-30T06:26:34.262Z,100965.84
2023-01-30T06:29:02.537Z,100962.28
2023-01-30T06:31:29.365Z,100966.22
2023-01-30T06:33:56.109Z,100978.97
2023-01-30T06:36:22.797Z,100983.66
2023-01-30T06:38:49.497Z,100988.88
2023-01-30T06:41:16.324Z,100986.56
2023-01-30T06:43:42.996Z,100989.31
2023-01-30T06:46:11.138Z,100990.97
2023-01-30T06:48:37.948Z,100990.66
2023-01-30T06:51:04.886Z,100975.50
2023-01-30T06:53:31.608Z,100965.94
2023-01-30T06:55:59.342Z,100976.84
2023-01-30T06:58:26.265Z,100972.19
2023-01-30T07:00:53.089Z,100977.53
2023-01-30T07:03:21.213Z,100980.75
2023-01-30T07:05:48.452Z,100990.94
2023-01-30T07:08:16.186Z,100999.53
2023-01-30T07:10:44.076Z,101004.91
2023-01-30T07:13:10.950Z,101008.91
2023-01-30T07:15:37.942Z,101008.25
2023-01-30T07:18:04.819Z,101012.69
2023-01-30T07:20:32.967Z,101024.41
2023-01-30T07:22:59.898Z,101023.94
2023-01-30T07:25:27.945Z,101029.19
2023-01-30T07:27:56.391Z,101030.09
2023-01-30T07:30:23.466Z,101033.09
2023-01-30T07:32:51.244Z,101021.56
2023-01-30T07:35:18.274Z,101033.81
2023-01-30T07:37:47.605Z,101031.25
2023-01-30T07:40:15.084Z,101038.13
2023-01-30T07:42:42.183Z,101060.13
2023-01-30T07:45:09.679Z,101053.09
2023-01-30T07:47:36.433Z,101054.31
2023-01-30T07:50:03.446Z,101037.88
2023-01-30T07:52:30.159Z,101038.81
2023-01-30T07:55:01.154Z,101039.03
2023-01-30T07:57:28.199Z,101034.88
2023-01-30T07:59:55.003Z,101037.59
2023-01-30T08:02:21.830Z,101037.59
2023-01-30T08:04:48.653Z,101026.38
2023-01-30T08:07:15.380Z,101028.59
2023-01-30T08:09:42.098Z,101037.75
2023-01-30T08:12:10.223Z,101052.72
2023-01-30T08:14:36.909Z,101053.22
2023-01-30T08:17:03.640Z,101064.34
2023-01-30T08:19:30.347Z,101062.19
2023-01-30T08:21:59.072Z,101075.59
2023-01-30T08:24:25.890Z,101068.34
2023-01-30T08:26:52.598Z,101070.91
2023-01-30T08:29:20.699Z,101077.16
2023-01-30T08:31:47.463Z,101083.09
2023-01-30T08:34:14.235Z,101093.59
2023-01-30T08:36:40.928Z,101089.88
2023-01-30T08:39:07.714Z,101095.47
2023-01-30T08:41:34.432Z,101105.69
2023-01-30T08:44:01.134Z,101105.34
2023-01-30T08:46:29.272Z,101110.44
2023-01-30T08:48:56.036Z,101118.38
2023-01-30T08:51:22.791Z,101129.03
2023-01-30T08:53:49.583Z,101116.34
2023-01-30T08:56:17.185Z,101118.91
2023-01-30T08:58:43.888Z,101112.78
2023-01-30T09:01:10.670Z,101121.50
2023-01-30T09:03:38.803Z,101127.47
2023-01-30T09:06:06.024Z,101133.28
2023-01-30T09:08:33.095Z,101137.28
2023-01-30T09:11:00.249Z,101140.78
2023-01-30T09:13:26.988Z,101140.97
2023-01-30T09:15:54.001Z,101139.84
2023-01-30T09:18:20.804Z,101148.03
2023-01-30T09:20:48.975Z,101144.91
2023-01-30T09:23:16.103Z,101158.19
2023-01-30T09:25:45.201Z,101156.50
2023-01-30T09:28:12.053Z,101171.50
2023-01-30T09:30:38.889Z,101177.94
2023-01-30T09:33:05.688Z,101175.56
2023-01-30T09:35:32.427Z,101187.94
2023-01-30T09:38:00.704Z,101187.75
2023-01-30T09:40:29.108Z,101202.97
2023-01-30T09:43:17.587Z,101200.63
2023-01-30T09:45:53.404Z,101218.00
2023-01-30T09:48:29.490Z,101220.53
2023-01-30T09:51:11.545Z,101222.06
2023-01-30T09:54:01.284Z,101218.69
2023-01-30T09:56:28.098Z,101226.88
2023-01-30T09:58:57.146Z,101236.91
2023-01-30T10:01:32.700Z,101231.22
2023-01-30T10:04:09.836Z,101232.75
2023-01-30T10:06:43.391Z,101230.66
2023-01-30T10:09:18.391Z,101232.28
2023-01-30T10:11:59.800Z,101237.03
2023-01-30T10:14:52.264Z,101248.44
2023-01-30T10:17:32.806Z,101242.78
2023-01-30T10:20:16.394Z,101244.59
2023-01-30T10:22:57.424Z,101251.81
2023-01-30T10:25:32.678Z,101257.97
2023-01-30T10:28:06.293Z,101254.19
2023-01-30T10:30:34.083Z,101245.56
2023-01-30T10:33:06.026Z,101244.34
2023-01-30T10:35:36.826Z,101248.50
2023-01-30T10:38:14.766Z,101247.38
2023-01-30T10:40:48.957Z,101245.41
2023-01-30T10:43:22.139Z,101243.97
2023-01-30T10:45:55.761Z,101237.25
2023-01-30T10:48:45.743Z,101239.34
2023-01-30T10:51:24.129Z,101234.91
2023-01-30T10:53:55.589Z,101240.50
2023-01-30T10:56:33.954Z,101242.44
2023-01-30T10:59:10.429Z,101269.47
2023-01-30T11:01:44.056Z,101271.53
2023-01-30T11:04:19.540Z,101278.31
2023-01-30T11:06:47.167Z,101279.19
2023-01-30T11:09:14.188Z,101275.41
2023-01-30T11:11:49.379Z,101264.75
2023-01-30T11:14:16.632Z,101284.75
2023-01-30T11:16:46.540Z,101273.06
2023-01-30T11:19:21.639Z,101276.84
2023-01-30T11:21:50.800Z,101283.66
2023-01-30T11:24:19.711Z,101289.88
2023-01-30T11:26:48.683Z,101294.41
2023-01-30T11:29:24.814Z,101276.94
2023-01-30T11:31:52.963Z,101281.75
2023-01-30T11:34:22.312Z,101284.56
2023-01-30T11:36:50.376Z,101284.31
2023-01-30T11:39:23.337Z,101287.50
2023-01-30T11:42:10.416Z,101283.84
2023-01-30T11:44:40.971Z,101291.94
2023-01-30T11:47:13.059Z,101295.69
2023-01-30T11:49:50.094Z,101305.09
2023-01-30T11:52:20.236Z,101302.53
2023-01-30T11:54:47.016Z,101315.84
2023-01-30T11:57:17.675Z,101310.31
2023-01-30T11:59:47.110Z,101323.16
2023-01-30T12:02:20.035Z,101315.19
2023-01-30T12:04:50.786Z,101300.38
2023-01-30T12:07:22.570Z,101306.50
2023-01-30T12:09:50.104Z,101315.94
2023-01-30T12:12:44.746Z,101308.34
2023-01-30T12:15:21.870Z,101305.91
2023-01-30T12:17:59.298Z,101307.25
2023-01-30T12:20:46.314Z,101312.63
2023-01-30T12:23:18.842Z,101309.63
2023-01-30T12:25:56.538Z,101301.38
2023-01-30T12:28:32.867Z,101305.16
2023-01-30T12:31:06.787Z,101297.91
2023-01-30T12:33:34.702Z,101277.94
2023-01-30T12:36:11.617Z,101276.13
2023-01-30T12:38:55.061Z,101269.06
2023-01-30T12:41:37.389Z,101273.22
2023-01-30T12:44:33.106Z,101283.34
2023-01-30T12:47:24.082Z,101290.72
2023-01-30T12:50:05.771Z,101289.66
2023-01-30T12:53:02.216Z,101301.66
2023-01-30T12:55:39.531Z,101301.78
2023-01-30T12:58:14.365Z,101300.69
2023-01-30T13:01:03.496Z,101306.09
2023-01-30T13:03:37.504Z,101308.56
2023-01-30T13:06:19.860Z,101308.09
2023-01-30T13:08:59.375Z,101306.13
2023-01-30T13:11:45.145Z,101302.72
2023-01-30T13:14:22.300Z,101300.72
2023-01-30T13:17:05.343Z,101309.97
2023-01-30T13:19:41.519Z,101301.94
2023-01-30T13:22:15.905Z,101294.41
2023-01-30T13:24:53.952Z,101288.06
2023-01-30T13:27:23.472Z,101288.84
2023-01-30T13:29:55.116Z,101285.28
2023-01-30T13:32:34.801Z,101284.09
2023-01-30T13:35:06.812Z,101284.59
2023-01-30T13:37:34.564Z,101279.69
2023-01-30T13:40:04.875Z,101269.41
2023-01-30T13:42:38.623Z,101284.50
2023-01-30T13:45:07.637Z,101287.06
2023-01-30T13:47:46.443Z,101295.22
2023-01-30T13:50:28.141Z,101296.84
2023-01-30T13:53:03.547Z,101299.19
2023-01-30T13:55:39.569Z,101294.75
2023-01-30T13:58:15.505Z,101305.97
2023-01-30T14:00:52.385Z,101297.38
2023-01-30T14:03:29.657Z,101299.19
2023-01-30T14:06:11.779Z,101281.94
2023-01-30T14:08:50.573Z,101296.03
2023-01-30T14:11:29.173Z,101303.47
2023-01-30T14:14:02.485Z,101298.53
2023-01-30T14:16:44.320Z,101304.72
2023-01-30T14:19:33.124Z,101301.38
2023-01-30T14:22:02.627Z,101297.78
2023-01-30T14:24:32.375Z,101290.81
2023-01-30T14:27:01.879Z,101305.00
2023-01-30T14:29:51.197Z,101304.41
2023-01-30T14:32:37.984Z,101315.53
2023-01-30T14:35:22.697Z,101310.31
2023-01-30T14:38:10.760Z,101306.41
2023-01-30T14:40:45.042Z,101312.38
2023-01-30T14:43:35.537Z,101310.81
2023-01-30T14:46:06.181Z,101315.50
2023-01-30T14:48:40.626Z,101311.28
2023-01-30T14:51:21.126Z,101304.84
2023-01-30T14:53:56.721Z,101306.00
2023-01-30T14:56:39.444Z,101314.06
2023-01-30T14:59:18.204Z,101310.53
2023-01-30T15:01:54.834Z,101310.06
2023-01-30T15:04:22.143Z,101315.81
2023-01-30T15:06:50.443Z,101325.56
2023-01-30T15:09:17.924Z,101319.16
2023-01-30T15:11:54.040Z,101323.78
2023-01-30T15:14:28.079Z,101313.84
2023-01-30T15:17:04.574Z,101319.06
2023-01-30T15:19:57.928Z,101313.97
2023-01-30T15:22:35.075Z,101327.25
2023-01-30T15:25:25.718Z,101312.03
2023-01-30T15:28:05.818Z,101326.22
2023-01-30T15:30:47.201Z,101327.06
2023-01-30T15:33:22.813Z,101330.19
2023-01-30T15:35:53.099Z,101334.97
2023-01-30T15:38:27.631Z,101333.25
2023-01-30T15:40:56.415Z,101329.34
2023-01-30T15:43:42.950Z,101333.91
2023-01-30T15:46:17.400Z,101342.78
2023-01-30T15:49:07.643Z,101348.81
2023-01-30T15:51:34.627Z,101340.28
2023-01-30T15:54:08.856Z,101355.00
2023-01-30T15:56:35.960Z,101352.69
2023-01-30T15:59:03.631Z,101349.47
2023-01-30T16:01:31.011Z,101355.16
2023-01-30T16:03:57.860Z,101350.91
2023-01-30T16:06:29.822Z,101354.66
2023-01-30T16:08:58.573Z,101358.56
2023-01-30T16:11:35.930Z,101354.50
2023-01-30T16:14:02.832Z,101354.81
2023-01-30T16:16:32.157Z,101349.25
2023-01-30T16:19:01.132Z,101347.75
2023-01-30T16:21:32.512Z,101353.41
2023-01-30T16:24:04.880Z,101343.56
2023-01-30T16:26:35.261Z,101332.28
2023-01-30T16:29:05.254Z,101338.44
2023-01-30T16:31:33.132Z,101349.03
2023-01-30T16:34:00.527Z,101347.16
2023-01-30T16:36:32.928Z,101348.44
2023-01-30T16:38:59.970Z,101353.88
2023-01-30T16:41:32.648Z,101370.09
2023-01-30T16:44:17.972Z,101376.59
2023-01-30T16:46:50.685Z,101372.81
2023-01-30T16:49:22.292Z,101387.69
2023-01-30T16:51:49.808Z,101382.22
2023-01-30T16:54:21.340Z,101379.66
2023-01-30T16:56:51.579Z,101378.81
2023-01-30T16:59:29.367Z,101396.72
2023-01-30T17:01:56.914Z,101397.59
2023-01-30T17:04:27.639Z,101386.84
2023-01-30T17:06:56.793Z,101387.69
2023-01-30T17:09:50.620Z,101384.97
2023-01-30T17:12:37.492Z,101394.16
2023-01-30T17:15:31.816Z,101392.13
2023-01-30T17:17:59.005Z,101399.09
2023-01-30T17:20:32.012Z,101401.50
2023-01-30T17:23:05.024Z,101406.28
2023-01-30T17:25:34.455Z,101391.78
2023-01-30T17:28:02.331Z,101399.13
2023-01-30T17:30:31.822Z,101404.72
2023-01-30T17:32:59.972Z,101411.91
2023-01-30T17:35:26.665Z,101407.28
2023-01-30T17:38:04.715Z,101408.84
2023-01-30T17:40:34.196Z,101401.31
2023-01-30T17:43:01.167Z,101403.69
2023-01-30T17:45:28.441Z,101403.53
2023-01-30T17:47:55.561Z,101405.75
2023-01-30T17:50:23.681Z,101397.91
2023-01-30T17:52:50.345Z,101394.66
2023-01-30T17:55:17.653Z,101390.75
2023-01-30T17:57:47.972Z,101385.66
2023-01-30T18:00:17.685Z,101394.31
2023-01-30T18:02:44.785Z,101408.13
2023-01-30T18:05:11.934Z,101414.28
2023-01-30T18:07:40.319Z,101410.84
2023-01-30T18:10:08.639Z,101411.22
2023-01-30T18:12:35.350Z,101408.66
2023-01-30T18:15:02.046Z,101407.44
2023-01-30T18:17:28.909Z,101410.38
2023-01-30T18:19:56.086Z,101413.25
2023-01-30T18:22:22.852Z,101414.78
2023-01-30T18:24:50.897Z,101416.66
2023-01-30T18:27:17.620Z,101417.34
2023-01-30T18:29:44.342Z,101417.00
2023-01-30T18:32:11.051Z,101405.09
2023-01-30T18:34:37.739Z,101411.22
2023-01-30T18:37:04.507Z,101420.25
2023-01-30T18:39:31.203Z,101418.53
2023-01-30T18:41:59.327Z,101415.63
2023-01-30T18:44:26.042Z,101407.13
2023-01-30T18:46:52.721Z,101410.19
2023-01-30T18:49:19.563Z,101405.56
2023-01-30T18:51:46.327Z,101403.03
2023-01-30T18:54:13.077Z,101389.03
2023-01-30T18:56:39.825Z,101391.41
2023-01-30T18:59:07.961Z,101379.13
2023-01-30T19:01:37.078Z,101380.84
2023-01-30T19:04:05.769Z,101373.81
2023-01-30T19:06:35.215Z,101382.84
2023-01-30T19:09:01.980Z,101387.06
2023-01-30T19:11:28.761Z,101374.41
2023-01-30T19:13:56.113Z,101378.25
2023-01-30T19:16:27.623Z,101381.38
2023-01-30T19:18:55.088Z,101376.03
2023-01-30T19:21:22.485Z,101375.31
2023-01-30T19:23:49.358Z,101364.44
2023-01-30T19:26:17.191Z,101361.41
2023-01-30T19:28:44.035Z,101368.00
2023-01-30T19:31:12.763Z,101361.00
2023-01-30T19:33:41.080Z,101358.28
2023-01-30T19:36:08.871Z,101357.19
2023-01-30T19:38:35.566Z,101353.16
2023-01-30T19:41:02.447Z,101346.41
2023-01-30T19:43:29.144Z,101338.78
2023-01-30T19:45:58.740Z,101345.00
2023-01-30T19:48:26.223Z,101339.16
2023-01-30T19:50:54.316Z,101330.50
2023-01-30T19:53:21.001Z,101339.19
2023-01-30T19:55:51.165Z,101342.44
2023-01-30T19:58:18.423Z,101338.25
2023-01-30T20:00:45.365Z,101317.91
2023-01-30T20:03:12.335Z,101305.53
2023-01-30T20:05:39.072Z,101316.25
2023-01-30T20:08:07.144Z,101327.34
2023-01-30T20:10:33.852Z,101338.88
2023-01-30T20:13:00.556Z,101334.56
2023-01-30T20:15:27.206Z,101332.88
2023-01-30T20:17:53.906Z,101329.44
2023-01-30T20:20:20.752Z,101330.63
2023-01-30T20:22:47.663Z,101326.91
2023-01-30T20:25:18.618Z,101322.25
2023-01-30T20:27:45.309Z,101314.78
2023-01-30T20:30:15.232Z,101311.75
2023-01-30T20:32:42.047Z,101310.56
2023-01-30T20:35:09.284Z,101315.72
2023-01-30T20:37:38.740Z,101323.47
2023-01-30T20:40:06.677Z,101321.69
2023-01-30T20:42:34.792Z,101318.44
2023-01-30T20:45:01.463Z,101317.34
2023-01-30T20:47:28.226Z,101310.13
2023-01-30T20:49:54.885Z,101294.09
2023-01-30T20:52:21.635Z,101285.84
2023-01-30T20:54:48.665Z,101279.72
2023-01-30T20:57:15.614Z,101277.94
2023-01-30T20:59:43.800Z,101285.47
2023-01-30T21:02:10.812Z,101282.53
2023-01-30T21:04:37.491Z,101285.94
2023-01-30T21:07:04.202Z,101291.00
2023-01-30T21:09:30.888Z,101287.66
2023-01-30T21:11:57.585Z,101279.09
2023-01-30T21:14:26.505Z,101282.28
2023-01-30T21:16:54.831Z,101286.00
2023-01-30T21:19:21.908Z,101281.75
2023-01-30T21:21:51.174Z,101280.78
2023-01-30T21:24:20.363Z,101278.06
2023-01-30T21:26:47.419Z,101268.22
2023-01-30T21:29:16.225Z,101272.34
2023-01-30T21:31:43.763Z,101274.06
2023-01-30T21:34:12.467Z,101275.91
2023-01-30T21:36:39.501Z,101269.28
2023-01-30T21:39:06.259Z,101261.09
2023-01-30T21:41:35.627Z,101266.56
2023-01-30T21:44:02.365Z,101268.50
2023-01-30T21:46:31.646Z,101259.16
2023-01-30T21:48:58.348Z,101262.03
2023-01-30T21:51:26.454Z,101246.06
2023-01-30T21:53:53.787Z,101239.91
2023-01-30T21:56:20.865Z,101242.13
2023-01-30T21:58:47.559Z,101237.75
2023-01-30T22:01:15.048Z,101237.41
2023-01-30T22:03:41.828Z,101228.38
2023-01-30T22:06:09.825Z,101229.06
2023-01-30T22:08:38.721Z,101221.03
2023-01-30T22:11:07.187Z,101221.72
2023-01-30T22:13:34.133Z,101206.91
2023-01-30T22:16:01.814Z,101215.78
2023-01-30T22:18:28.838Z,101210.00
2023-01-30T22:21:01.139Z,101215.22
2023-01-30T22:23:31.116Z,101209.47
2023-01-30T22:25:59.440Z,101201.28
2023-01-30T22:28:26.397Z,101203.31
2023-01-30T22:30:53.196Z,101196.84
2023-01-30T22:33:20.124Z,101189.50
2023-01-30T22:35:49.056Z,101201.44
2023-01-30T22:38:15.819Z,101196.16
2023-01-30T22:40:42.509Z,101194.75
2023-01-30T22:43:10.584Z,101195.97
2023-01-30T22:45:37.477Z,101199.03
2023-01-30T22:48:04.477Z,101198.53
2023-01-30T22:50:31.173Z,101192.34
2023-01-30T22:52:57.977Z,101194.94
2023-01-30T22:55:24.688Z,101191.00
2023-01-30T22:57:51.556Z,101196.97
2023-01-30T23:00:20.142Z,101205.81
2023-01-30T23:02:46.860Z,101201.88
2023-01-30T23:05:13.581Z,101199.16
2023-01-30T23:07:40.415Z,101194.41
2023-01-30T23:10:09.323Z,101191.66
2023-01-30T23:12:36.689Z,101189.13
2023-01-30T23:15:04.283Z,101182.63
2023-01-30T23:17:32.706Z,101183.50
2023-01-30T23:19:59.573Z,101186.56
2023-01-30T23:22:26.396Z,101189.28
2023-01-30T23:24:53.205Z,101181.78
2023-01-30T23:27:20.686Z,101180.94
2023-01-30T23:29:47.532Z,101188.94
2023-01-30T23:32:14.359Z,101178.72
2023-01-30T23:34:42.513Z,101178.72
2023-01-30T23:37:09.288Z,101185.19
2023-01-30T23:39:36.403Z,101173.88
2023-01-30T23:42:03.438Z,101171.38
2023-01-30T23:44:30.331Z,101163.38
2023-01-30T23:46:57.294Z,101173.44
2023-01-30T23:49:24.025Z,101172.88
2023-01-30T23:51:52.155Z,101172.22
2023-01-30T23:54:18.912Z,101156.50
2023-01-30T23:56:45.648Z,101151.88
2023-01-30T23:59:12.940Z,101151.69
